sensor_id;sensor_type;location;lat;lon;timestamp;P1;durP1;ratioP1;P2;durP2;ratioP2
68744;SDS011;66104;45.456;11.064;2023-01-15T00:01:49;12.10;;;8.10;;
68744;SDS011;66104;45.456;11.064;2023-01-15T00:04:25;11.90;;;8.20;;
68744;SDS011;66104;45.456;11.064;2023-01-15T00:07:02;10.60;;;8.10;;
68744;SDS011;66104;45.456;11.064;2023-01-15T00:09:39;14.80;;;9.00;;
68744;SDS011;66104;45.456;11.064;2023-01-15T00:12:15;12.80;;;8.60;;
68744;SDS011;66104;45.456;11.064;2023-01-15T00:14:51;12.20;;;8.30;;
68744;SDS011;66104;45.456;11.064;2023-01-15T00:17:29;11.30;;;7.60;;
68744;SDS011;66104;45.456;11.064;2023-01-15T00:20:09;11.10;;;7.60;;
68744;SDS011;66104;45.456;11.064;2023-01-15T00:22:47;11.00;;;8.20;;
68744;SDS011;66104;45.456;11.064;2023-01-15T00:25:24;10.10;;;6.70;;
68744;SDS011;66104;45.456;11.064;2023-01-15T00:28:18;10.90;;;7.50;;
68744;SDS011;66104;45.456;11.064;2023-01-15T00:30:55;11.40;;;8.00;;
68744;SDS011;66104;45.456;11.064;2023-01-15T00:33:32;10.50;;;7.50;;
68744;SDS011;66104;45.456;11.064;2023-01-15T00:36:11;11.70;;;7.40;;
68744;SDS011;66104;45.456;11.064;2023-01-15T00:38:47;11.60;;;8.10;;
68744;SDS011;66104;45.456;11.064;2023-01-15T00:41:24;11.60;;;7.60;;
68744;SDS011;66104;45.456;11.064;2023-01-15T00:44:05;11.60;;;7.80;;
68744;SDS011;66104;45.456;11.064;2023-01-15T00:46:40;12.70;;;8.50;;
68744;SDS011;66104;45.456;11.064;2023-01-15T00:49:18;12.50;;;7.30;;
68744;SDS011;66104;45.456;11.064;2023-01-15T00:51:54;12.80;;;7.50;;
68744;SDS011;66104;45.456;11.064;2023-01-15T00:54:32;13.40;;;7.30;;
68744;SDS011;66104;45.456;11.064;2023-01-15T00:57:29;10.80;;;6.90;;
68744;SDS011;66104;45.456;11.064;2023-01-15T01:00:08;10.50;;;6.40;;
68744;SDS011;66104;45.456;11.064;2023-01-15T01:02:49;9.10;;;6.50;;
68744;SDS011;66104;45.456;11.064;2023-01-15T01:05:27;8.90;;;6.20;;
68744;SDS011;66104;45.456;11.064;2023-01-15T01:08:04;10.20;;;7.20;;
68744;SDS011;66104;45.456;11.064;2023-01-15T01:10:40;10.30;;;6.80;;
68744;SDS011;66104;45.456;11.064;2023-01-15T01:13:17;8.80;;;6.40;;
68744;SDS011;66104;45.456;11.064;2023-01-15T01:15:54;11.30;;;7.50;;
68744;SDS011;66104;45.456;11.064;2023-01-15T01:18:30;10.80;;;7.40;;
68744;SDS011;66104;45.456;11.064;2023-01-15T01:21:13;11.50;;;7.30;;
68744;SDS011;66104;45.456;11.064;2023-01-15T01:23:50;10.80;;;6.40;;
68744;SDS011;66104;45.456;11.064;2023-01-15T01:26:30;10.80;;;7.50;;
68744;SDS011;66104;45.456;11.064;2023-01-15T01:29:07;9.20;;;6.70;;
68744;SDS011;66104;45.456;11.064;2023-01-15T01:32:00;8.60;;;6.70;;
68744;SDS011;66104;45.456;11.064;2023-01-15T01:34:38;9.30;;;6.60;;
68744;SDS011;66104;45.456;11.064;2023-01-15T01:37:14;10.40;;;6.80;;
68744;SDS011;66104;45.456;11.064;2023-01-15T01:39:51;11.00;;;7.10;;
68744;SDS011;66104;45.456;11.064;2023-01-15T01:42:28;12.30;;;6.60;;
68744;SDS011;66104;45.456;11.064;2023-01-15T01:45:19;10.80;;;7.70;;
68744;SDS011;66104;45.456;11.064;2023-01-15T01:48:01;13.10;;;7.20;;
68744;SDS011;66104;45.456;11.064;2023-01-15T01:50:40;11.70;;;7.70;;
68744;SDS011;66104;45.456;11.064;2023-01-15T01:53:22;11.00;;;7.00;;
68744;SDS011;66104;45.456;11.064;2023-01-15T01:56:01;12.80;;;7.70;;
68744;SDS011;66104;45.456;11.064;2023-01-15T01:58:40;10.20;;;7.00;;
68744;SDS011;66104;45.456;11.064;2023-01-15T02:01:18;10.10;;;6.70;;
68744;SDS011;66104;45.456;11.064;2023-01-15T02:03:56;10.10;;;6.60;;
68744;SDS011;66104;45.456;11.064;2023-01-15T02:06:34;9.50;;;6.60;;
68744;SDS011;66104;45.456;11.064;2023-01-15T02:09:10;10.00;;;6.40;;
68744;SDS011;66104;45.456;11.064;2023-01-15T02:11:45;10.90;;;6.40;;
68744;SDS011;66104;45.456;11.064;2023-01-15T02:14:30;11.90;;;7.50;;
68744;SDS011;66104;45.456;11.064;2023-01-15T02:17:19;10.30;;;6.60;;
68744;SDS011;66104;45.456;11.064;2023-01-15T02:20:17;11.00;;;7.50;;
68744;SDS011;66104;45.456;11.064;2023-01-15T02:26:46;11.20;;;7.70;;
68744;SDS011;66104;45.456;11.064;2023-01-15T02:29:44;9.70;;;7.00;;
68744;SDS011;66104;45.456;11.064;2023-01-15T02:32:36;11.70;;;7.30;;
68744;SDS011;66104;45.456;11.064;2023-01-15T02:35:22;11.80;;;7.60;;
68744;SDS011;66104;45.456;11.064;2023-01-15T02:38:07;11.60;;;7.40;;
68744;SDS011;66104;45.456;11.064;2023-01-15T02:40:53;11.80;;;7.80;;
68744;SDS011;66104;45.456;11.064;2023-01-15T02:43:38;10.10;;;7.30;;
68744;SDS011;66104;45.456;11.064;2023-01-15T02:46:17;10.40;;;7.20;;
68744;SDS011;66104;45.456;11.064;2023-01-15T02:48:56;13.00;;;8.60;;
68744;SDS011;66104;45.456;11.064;2023-01-15T02:51:40;12.80;;;8.30;;
68744;SDS011;66104;45.456;11.064;2023-01-15T02:54:21;11.10;;;7.50;;
68744;SDS011;66104;45.456;11.064;2023-01-15T02:57:01;10.10;;;7.30;;
68744;SDS011;66104;45.456;11.064;2023-01-15T02:59:40;12.60;;;8.00;;
68744;SDS011;66104;45.456;11.064;2023-01-15T03:02:22;11.10;;;7.80;;
68744;SDS011;66104;45.456;11.064;2023-01-15T03:05:06;11.60;;;7.70;;
68744;SDS011;66104;45.456;11.064;2023-01-15T03:07:52;12.20;;;7.70;;
68744;SDS011;66104;45.456;11.064;2023-01-15T03:10:41;13.90;;;7.80;;
68744;SDS011;66104;45.456;11.064;2023-01-15T03:13:23;13.70;;;8.80;;
68744;SDS011;66104;45.456;11.064;2023-01-15T03:16:08;13.40;;;7.90;;
68744;SDS011;66104;45.456;11.064;2023-01-15T03:19:14;12.10;;;7.60;;
68744;SDS011;66104;45.456;11.064;2023-01-15T03:22:02;12.70;;;8.00;;
68744;SDS011;66104;45.456;11.064;2023-01-15T03:24:43;10.50;;;7.20;;
68744;SDS011;66104;45.456;11.064;2023-01-15T03:27:23;12.10;;;8.00;;
68744;SDS011;66104;45.456;11.064;2023-01-15T03:30:04;11.00;;;7.50;;
68744;SDS011;66104;45.456;11.064;2023-01-15T03:32:44;12.40;;;8.20;;
68744;SDS011;66104;45.456;11.064;2023-01-15T03:35:41;14.80;;;8.30;;
68744;SDS011;66104;45.456;11.064;2023-01-15T03:38:36;11.60;;;8.20;;
68744;SDS011;66104;45.456;11.064;2023-01-15T03:41:23;16.10;;;8.70;;
68744;SDS011;66104;45.456;11.064;2023-01-15T03:44:16;13.00;;;8.00;;
68744;SDS011;66104;45.456;11.064;2023-01-15T03:47:06;12.40;;;8.00;;
68744;SDS011;66104;45.456;11.064;2023-01-15T03:49:55;10.30;;;7.40;;
68744;SDS011;66104;45.456;11.064;2023-01-15T03:52:49;12.10;;;7.90;;
68744;SDS011;66104;45.456;11.064;2023-01-15T03:55:43;12.10;;;7.30;;
68744;SDS011;66104;45.456;11.064;2023-01-15T03:58:28;11.10;;;7.50;;
68744;SDS011;66104;45.456;11.064;2023-01-15T04:01:13;13.50;;;8.30;;
68744;SDS011;66104;45.456;11.064;2023-01-15T04:03:58;12.00;;;7.40;;
68744;SDS011;66104;45.456;11.064;2023-01-15T04:06:38;12.20;;;7.90;;
68744;SDS011;66104;45.456;11.064;2023-01-15T04:09:18;11.60;;;7.60;;
68744;SDS011;66104;45.456;11.064;2023-01-15T04:12:02;12.50;;;7.60;;
68744;SDS011;66104;45.456;11.064;2023-01-15T04:14:46;13.20;;;7.40;;
68744;SDS011;66104;45.456;11.064;2023-01-15T04:17:25;11.60;;;7.20;;
68744;SDS011;66104;45.456;11.064;2023-01-15T04:20:02;11.40;;;7.20;;
68744;SDS011;66104;45.456;11.064;2023-01-15T04:22:45;10.20;;;7.20;;
68744;SDS011;66104;45.456;11.064;2023-01-15T04:25:22;11.80;;;6.70;;
68744;SDS011;66104;45.456;11.064;2023-01-15T04:27:59;12.40;;;7.60;;
68744;SDS011;66104;45.456;11.064;2023-01-15T04:30:36;11.70;;;7.50;;
68744;SDS011;66104;45.456;11.064;2023-01-15T04:33:14;13.10;;;8.10;;
68744;SDS011;66104;45.456;11.064;2023-01-15T04:35:51;13.20;;;9.00;;
68744;SDS011;66104;45.456;11.064;2023-01-15T04:38:27;13.20;;;9.40;;
68744;SDS011;66104;45.456;11.064;2023-01-15T04:41:04;15.30;;;9.20;;
68744;SDS011;66104;45.456;11.064;2023-01-15T04:43:58;13.60;;;9.70;;
68744;SDS011;66104;45.456;11.064;2023-01-15T04:46:43;14.40;;;9.80;;
68744;SDS011;66104;45.456;11.064;2023-01-15T04:49:20;13.30;;;9.40;;
68744;SDS011;66104;45.456;11.064;2023-01-15T04:51:57;14.60;;;9.60;;
68744;SDS011;66104;45.456;11.064;2023-01-15T04:54:33;15.20;;;10.30;;
68744;SDS011;66104;45.456;11.064;2023-01-15T04:57:12;16.10;;;11.00;;
68744;SDS011;66104;45.456;11.064;2023-01-15T04:59:49;15.40;;;10.10;;
68744;SDS011;66104;45.456;11.064;2023-01-15T05:02:25;15.50;;;9.70;;
68744;SDS011;66104;45.456;11.064;2023-01-15T05:05:03;14.40;;;10.00;;
68744;SDS011;66104;45.456;11.064;2023-01-15T05:07:43;14.80;;;9.80;;
68744;SDS011;66104;45.456;11.064;2023-01-15T05:10:20;14.60;;;10.40;;
68744;SDS011;66104;45.456;11.064;2023-01-15T05:12:57;15.10;;;9.60;;
68744;SDS011;66104;45.456;11.064;2023-01-15T05:15:34;17.70;;;11.10;;
68744;SDS011;66104;45.456;11.064;2023-01-15T05:18:11;16.30;;;10.60;;
68744;SDS011;66104;45.456;11.064;2023-01-15T05:20:47;17.60;;;11.40;;
68744;SDS011;66104;45.456;11.064;2023-01-15T05:23:24;18.60;;;10.10;;
68744;SDS011;66104;45.456;11.064;2023-01-15T05:26:04;14.70;;;9.30;;
68744;SDS011;66104;45.456;11.064;2023-01-15T05:28:40;15.60;;;9.60;;
68744;SDS011;66104;45.456;11.064;2023-01-15T05:31:19;15.00;;;9.30;;
68744;SDS011;66104;45.456;11.064;2023-01-15T05:33:56;14.90;;;9.40;;
68744;SDS011;66104;45.456;11.064;2023-01-15T05:36:32;15.30;;;9.40;;
68744;SDS011;66104;45.456;11.064;2023-01-15T05:39:09;13.30;;;9.10;;
68744;SDS011;66104;45.456;11.064;2023-01-15T05:41:48;16.40;;;9.40;;
68744;SDS011;66104;45.456;11.064;2023-01-15T05:44:25;16.30;;;10.70;;
68744;SDS011;66104;45.456;11.064;2023-01-15T05:47:03;16.30;;;10.60;;
68744;SDS011;66104;45.456;11.064;2023-01-15T05:49:40;17.10;;;10.50;;
68744;SDS011;66104;45.456;11.064;2023-01-15T05:52:19;15.60;;;10.30;;
68744;SDS011;66104;45.456;11.064;2023-01-15T05:54:56;11.90;;;9.20;;
68744;SDS011;66104;45.456;11.064;2023-01-15T05:57:34;14.80;;;10.50;;
68744;SDS011;66104;45.456;11.064;2023-01-15T06:00:17;17.40;;;11.20;;
68744;SDS011;66104;45.456;11.064;2023-01-15T06:03:00;18.80;;;10.80;;
68744;SDS011;66104;45.456;11.064;2023-01-15T06:05:36;15.40;;;10.60;;
68744;SDS011;66104;45.456;11.064;2023-01-15T06:08:13;19.00;;;12.20;;
68744;SDS011;66104;45.456;11.064;2023-01-15T06:10:51;17.30;;;12.00;;
68744;SDS011;66104;45.456;11.064;2023-01-15T06:13:28;18.60;;;12.00;;
68744;SDS011;66104;45.456;11.064;2023-01-15T06:16:06;17.90;;;11.80;;
68744;SDS011;66104;45.456;11.064;2023-01-15T06:18:44;15.80;;;10.90;;
68744;SDS011;66104;45.456;11.064;2023-01-15T06:21:20;15.70;;;10.10;;
68744;SDS011;66104;45.456;11.064;2023-01-15T06:23:58;16.30;;;11.40;;
68744;SDS011;66104;45.456;11.064;2023-01-15T06:26:34;18.20;;;11.10;;
68744;SDS011;66104;45.456;11.064;2023-01-15T06:29:11;13.60;;;9.80;;
68744;SDS011;66104;45.456;11.064;2023-01-15T06:31:51;17.60;;;10.10;;
68744;SDS011;66104;45.456;11.064;2023-01-15T06:34:27;17.50;;;10.50;;
68744;SDS011;66104;45.456;11.064;2023-01-15T06:37:04;17.70;;;11.80;;
68744;SDS011;66104;45.456;11.064;2023-01-15T06:39:41;19.40;;;13.20;;
68744;SDS011;66104;45.456;11.064;2023-01-15T06:42:18;22.10;;;13.20;;
68744;SDS011;66104;45.456;11.064;2023-01-15T06:45:14;16.20;;;11.60;;
68744;SDS011;66104;45.456;11.064;2023-01-15T06:48:09;18.70;;;12.40;;
68744;SDS011;66104;45.456;11.064;2023-01-15T06:50:45;17.40;;;12.20;;
68744;SDS011;66104;45.456;11.064;2023-01-15T06:53:23;17.50;;;12.40;;
68744;SDS011;66104;45.456;11.064;2023-01-15T06:56:02;17.00;;;12.20;;
68744;SDS011;66104;45.456;11.064;2023-01-15T06:58:40;21.30;;;13.30;;
68744;SDS011;66104;45.456;11.064;2023-01-15T07:01:17;16.90;;;12.60;;
68744;SDS011;66104;45.456;11.064;2023-01-15T07:03:55;20.10;;;12.20;;
68744;SDS011;66104;45.456;11.064;2023-01-15T07:06:33;17.60;;;12.90;;
68744;SDS011;66104;45.456;11.064;2023-01-15T07:09:10;22.30;;;14.30;;
68744;SDS011;66104;45.456;11.064;2023-01-15T07:11:47;20.00;;;13.70;;
68744;SDS011;66104;45.456;11.064;2023-01-15T07:14:24;19.90;;;13.80;;
68744;SDS011;66104;45.456;11.064;2023-01-15T07:17:01;20.80;;;13.70;;
68744;SDS011;66104;45.456;11.064;2023-01-15T07:19:38;19.80;;;13.60;;
68744;SDS011;66104;45.456;11.064;2023-01-15T07:22:14;19.60;;;13.10;;
68744;SDS011;66104;45.456;11.064;2023-01-15T07:24:52;20.50;;;13.30;;
68744;SDS011;66104;45.456;11.064;2023-01-15T07:27:30;21.80;;;13.40;;
68744;SDS011;66104;45.456;11.064;2023-01-15T07:30:11;22.70;;;14.40;;
68744;SDS011;66104;45.456;11.064;2023-01-15T07:32:50;20.10;;;14.50;;
68744;SDS011;66104;45.456;11.064;2023-01-15T07:35:28;23.00;;;14.00;;
68744;SDS011;66104;45.456;11.064;2023-01-15T07:38:06;24.20;;;15.10;;
68744;SDS011;66104;45.456;11.064;2023-01-15T07:40:44;23.70;;;14.90;;
68744;SDS011;66104;45.456;11.064;2023-01-15T07:43:40;21.30;;;13.40;;
68744;SDS011;66104;45.456;11.064;2023-01-15T07:46:33;22.70;;;13.70;;
68744;SDS011;66104;45.456;11.064;2023-01-15T07:49:28;20.80;;;13.80;;
68744;SDS011;66104;45.456;11.064;2023-01-15T07:52:22;18.40;;;12.80;;
68744;SDS011;66104;45.456;11.064;2023-01-15T07:54:59;25.10;;;15.60;;
68744;SDS011;66104;45.456;11.064;2023-01-15T07:57:37;22.10;;;15.20;;
68744;SDS011;66104;45.456;11.064;2023-01-15T08:00:29;22.20;;;15.30;;
68744;SDS011;66104;45.456;11.064;2023-01-15T08:03:06;21.90;;;15.00;;
68744;SDS011;66104;45.456;11.064;2023-01-15T08:05:44;20.90;;;15.00;;
68744;SDS011;66104;45.456;11.064;2023-01-15T08:08:20;20.30;;;13.40;;
68744;SDS011;66104;45.456;11.064;2023-01-15T08:11:02;20.90;;;13.50;;
68744;SDS011;66104;45.456;11.064;2023-01-15T08:14:11;19.20;;;12.90;;
68744;SDS011;66104;45.456;11.064;2023-01-15T08:17:05;20.40;;;14.00;;
68744;SDS011;66104;45.456;11.064;2023-01-15T08:19:41;26.00;;;17.40;;
68744;SDS011;66104;45.456;11.064;2023-01-15T08:22:19;23.90;;;16.10;;
68744;SDS011;66104;45.456;11.064;2023-01-15T08:24:57;24.80;;;14.80;;
68744;SDS011;66104;45.456;11.064;2023-01-15T08:27:34;22.00;;;15.40;;
68744;SDS011;66104;45.456;11.064;2023-01-15T08:30:15;25.50;;;16.80;;
68744;SDS011;66104;45.456;11.064;2023-01-15T08:32:57;26.20;;;16.50;;
68744;SDS011;66104;45.456;11.064;2023-01-15T08:35:35;24.00;;;16.00;;
68744;SDS011;66104;45.456;11.064;2023-01-15T08:38:12;22.70;;;14.90;;
68744;SDS011;66104;45.456;11.064;2023-01-15T08:40:54;24.30;;;14.20;;
68744;SDS011;66104;45.456;11.064;2023-01-15T08:43:32;23.10;;;14.00;;
68744;SDS011;66104;45.456;11.064;2023-01-15T08:46:10;25.30;;;15.40;;
68744;SDS011;66104;45.456;11.064;2023-01-15T08:48:47;26.30;;;15.60;;
68744;SDS011;66104;45.456;11.064;2023-01-15T08:51:23;22.30;;;15.50;;
68744;SDS011;66104;45.456;11.064;2023-01-15T08:54:00;20.30;;;14.70;;
68744;SDS011;66104;45.456;11.064;2023-01-15T08:56:38;24.60;;;16.00;;
68744;SDS011;66104;45.456;11.064;2023-01-15T08:59:15;23.30;;;15.70;;
68744;SDS011;66104;45.456;11.064;2023-01-15T09:01:52;23.60;;;15.50;;
68744;SDS011;66104;45.456;11.064;2023-01-15T09:04:29;22.80;;;14.30;;
68744;SDS011;66104;45.456;11.064;2023-01-15T09:07:05;29.50;;;15.90;;
68744;SDS011;66104;45.456;11.064;2023-01-15T09:09:42;27.30;;;15.10;;
68744;SDS011;66104;45.456;11.064;2023-01-15T09:12:19;27.20;;;15.60;;
68744;SDS011;66104;45.456;11.064;2023-01-15T09:14:57;27.00;;;14.90;;
68744;SDS011;66104;45.456;11.064;2023-01-15T09:17:35;20.50;;;13.50;;
68744;SDS011;66104;45.456;11.064;2023-01-15T09:20:14;22.60;;;13.50;;
68744;SDS011;66104;45.456;11.064;2023-01-15T09:22:52;18.80;;;12.90;;
68744;SDS011;66104;45.456;11.064;2023-01-15T09:25:29;23.90;;;15.70;;
68744;SDS011;66104;45.456;11.064;2023-01-15T09:28:06;21.40;;;14.60;;
68744;SDS011;66104;45.456;11.064;2023-01-15T09:30:43;26.40;;;14.10;;
68744;SDS011;66104;45.456;11.064;2023-01-15T09:33:20;25.00;;;15.30;;
68744;SDS011;66104;45.456;11.064;2023-01-15T09:36:00;30.00;;;15.80;;
68744;SDS011;66104;45.456;11.064;2023-01-15T09:38:37;22.30;;;14.90;;
68744;SDS011;66104;45.456;11.064;2023-01-15T09:41:15;22.10;;;13.60;;
68744;SDS011;66104;45.456;11.064;2023-01-15T09:44:30;23.80;;;13.30;;
68744;SDS011;66104;45.456;11.064;2023-01-15T09:47:17;19.80;;;13.50;;
68744;SDS011;66104;45.456;11.064;2023-01-15T09:50:08;19.40;;;13.30;;
68744;SDS011;66104;45.456;11.064;2023-01-15T09:55:56;21.10;;;12.90;;
68744;SDS011;66104;45.456;11.064;2023-01-15T09:58:37;21.20;;;13.30;;
68744;SDS011;66104;45.456;11.064;2023-01-15T10:01:17;20.50;;;13.30;;
68744;SDS011;66104;45.456;11.064;2023-01-15T10:04:02;20.20;;;13.70;;
68744;SDS011;66104;45.456;11.064;2023-01-15T10:06:49;20.60;;;13.50;;
68744;SDS011;66104;45.456;11.064;2023-01-15T10:09:32;19.80;;;13.30;;
68744;SDS011;66104;45.456;11.064;2023-01-15T10:12:17;19.50;;;12.80;;
68744;SDS011;66104;45.456;11.064;2023-01-15T10:15:29;22.10;;;14.00;;
68744;SDS011;66104;45.456;11.064;2023-01-15T10:18:14;25.80;;;16.50;;
68744;SDS011;66104;45.456;11.064;2023-01-15T10:21:17;29.20;;;16.70;;
68744;SDS011;66104;45.456;11.064;2023-01-15T10:24:09;32.90;;;18.20;;
68744;SDS011;66104;45.456;11.064;2023-01-15T10:26:55;30.00;;;17.60;;
68744;SDS011;66104;45.456;11.064;2023-01-15T10:29:41;29.60;;;17.20;;
68744;SDS011;66104;45.456;11.064;2023-01-15T10:32:34;23.20;;;15.90;;
68744;SDS011;66104;45.456;11.064;2023-01-15T10:35:43;23.30;;;16.00;;
68744;SDS011;66104;45.456;11.064;2023-01-15T10:38:31;22.80;;;15.90;;
68744;SDS011;66104;45.456;11.064;2023-01-15T10:41:30;21.90;;;14.60;;
68744;SDS011;66104;45.456;11.064;2023-01-15T10:44:22;19.60;;;11.90;;
68744;SDS011;66104;45.456;11.064;2023-01-15T10:47:12;23.60;;;16.20;;
68744;SDS011;66104;45.456;11.064;2023-01-15T10:49:52;24.90;;;17.10;;
68744;SDS011;66104;45.456;11.064;2023-01-15T10:52:32;28.90;;;18.50;;
68744;SDS011;66104;45.456;11.064;2023-01-15T10:55:21;28.40;;;16.20;;
68744;SDS011;66104;45.456;11.064;2023-01-15T10:58:04;23.80;;;14.80;;
68744;SDS011;66104;45.456;11.064;2023-01-15T11:00:53;25.30;;;15.20;;
68744;SDS011;66104;45.456;11.064;2023-01-15T11:03:40;24.10;;;15.90;;
68744;SDS011;66104;45.456;11.064;2023-01-15T11:06:18;28.20;;;16.20;;
68744;SDS011;66104;45.456;11.064;2023-01-15T11:08:56;26.90;;;17.20;;
68744;SDS011;66104;45.456;11.064;2023-01-15T11:11:42;27.50;;;16.90;;
68744;SDS011;66104;45.456;11.064;2023-01-15T11:14:40;23.00;;;15.40;;
68744;SDS011;66104;45.456;11.064;2023-01-15T11:17:46;22.30;;;13.10;;
68744;SDS011;66104;45.456;11.064;2023-01-15T11:20:45;25.20;;;14.20;;
68744;SDS011;66104;45.456;11.064;2023-01-15T11:23:23;21.30;;;14.20;;
68744;SDS011;66104;45.456;11.064;2023-01-15T11:26:23;24.70;;;15.10;;
68744;SDS011;66104;45.456;11.064;2023-01-15T11:29:13;17.90;;;12.50;;
68744;SDS011;66104;45.456;11.064;2023-01-15T11:31:59;23.80;;;15.90;;
68744;SDS011;66104;45.456;11.064;2023-01-15T11:34:35;25.50;;;16.90;;
68744;SDS011;66104;45.456;11.064;2023-01-15T11:37:12;26.30;;;16.40;;
68744;SDS011;66104;45.456;11.064;2023-01-15T11:39:58;23.60;;;16.10;;
68744;SDS011;66104;45.456;11.064;2023-01-15T11:42:44;24.20;;;16.60;;
68744;SDS011;66104;45.456;11.064;2023-01-15T11:45:47;22.10;;;15.10;;
68744;SDS011;66104;45.456;11.064;2023-01-15T11:48:47;21.30;;;15.20;;
68744;SDS011;66104;45.456;11.064;2023-01-15T11:51:45;21.70;;;15.00;;
68744;SDS011;66104;45.456;11.064;2023-01-15T11:54:22;29.70;;;18.00;;
68744;SDS011;66104;45.456;11.064;2023-01-15T11:57:00;27.30;;;17.80;;
68744;SDS011;66104;45.456;11.064;2023-01-15T11:59:38;26.00;;;18.40;;
68744;SDS011;66104;45.456;11.064;2023-01-15T12:02:27;26.70;;;17.90;;
68744;SDS011;66104;45.456;11.064;2023-01-15T12:05:17;28.80;;;18.70;;
68744;SDS011;66104;45.456;11.064;2023-01-15T12:08:00;29.60;;;18.50;;
68744;SDS011;66104;45.456;11.064;2023-01-15T12:10:57;26.40;;;19.10;;
68744;SDS011;66104;45.456;11.064;2023-01-15T12:14:07;26.10;;;18.00;;
68744;SDS011;66104;45.456;11.064;2023-01-15T12:17:05;32.80;;;21.40;;
68744;SDS011;66104;45.456;11.064;2023-01-15T12:19:56;31.70;;;21.30;;
68744;SDS011;66104;45.456;11.064;2023-01-15T12:22:58;29.00;;;18.10;;
68744;SDS011;66104;45.456;11.064;2023-01-15T12:25:54;27.40;;;19.10;;
68744;SDS011;66104;45.456;11.064;2023-01-15T12:28:41;25.80;;;18.20;;
68744;SDS011;66104;45.456;11.064;2023-01-15T12:31:28;28.00;;;18.60;;
68744;SDS011;66104;45.456;11.064;2023-01-15T12:34:16;24.40;;;18.30;;
68744;SDS011;66104;45.456;11.064;2023-01-15T12:37:01;30.10;;;20.80;;
68744;SDS011;66104;45.456;11.064;2023-01-15T12:39:50;33.40;;;22.20;;
68744;SDS011;66104;45.456;11.064;2023-01-15T12:42:32;31.60;;;21.90;;
68744;SDS011;66104;45.456;11.064;2023-01-15T12:45:30;30.00;;;20.30;;
68744;SDS011;66104;45.456;11.064;2023-01-15T12:48:18;30.80;;;20.00;;
68744;SDS011;66104;45.456;11.064;2023-01-15T12:51:02;29.20;;;20.10;;
68744;SDS011;66104;45.456;11.064;2023-01-15T12:53:43;28.20;;;20.30;;
68744;SDS011;66104;45.456;11.064;2023-01-15T12:56:28;36.40;;;23.00;;
68744;SDS011;66104;45.456;11.064;2023-01-15T12:59:21;32.50;;;22.60;;
68744;SDS011;66104;45.456;11.064;2023-01-15T13:02:12;30.60;;;19.80;;
68744;SDS011;66104;45.456;11.064;2023-01-15T13:04:53;26.40;;;19.10;;
68744;SDS011;66104;45.456;11.064;2023-01-15T13:07:41;32.90;;;18.80;;
68744;SDS011;66104;45.456;11.064;2023-01-15T13:10:24;31.00;;;19.40;;
68744;SDS011;66104;45.456;11.064;2023-01-15T13:13:15;24.00;;;17.40;;
68744;SDS011;66104;45.456;11.064;2023-01-15T13:16:02;32.80;;;21.00;;
68744;SDS011;66104;45.456;11.064;2023-01-15T13:18:55;31.30;;;19.90;;
68744;SDS011;66104;45.456;11.064;2023-01-15T13:21:44;28.50;;;19.60;;
68744;SDS011;66104;45.456;11.064;2023-01-15T13:28:02;29.70;;;20.70;;
68744;SDS011;66104;45.456;11.064;2023-01-15T13:30:55;29.00;;;18.90;;
68744;SDS011;66104;45.456;11.064;2023-01-15T13:33:41;26.10;;;18.00;;
68744;SDS011;66104;45.456;11.064;2023-01-15T13:36:24;26.90;;;19.30;;
68744;SDS011;66104;45.456;11.064;2023-01-15T13:39:06;27.80;;;19.10;;
68744;SDS011;66104;45.456;11.064;2023-01-15T13:41:52;30.10;;;18.60;;
68744;SDS011;66104;45.456;11.064;2023-01-15T13:44:53;27.80;;;17.90;;
68744;SDS011;66104;45.456;11.064;2023-01-15T13:47:32;27.50;;;18.90;;
68744;SDS011;66104;45.456;11.064;2023-01-15T13:50:18;24.30;;;18.40;;
68744;SDS011;66104;45.456;11.064;2023-01-15T13:53:12;33.20;;;22.30;;
68744;SDS011;66104;45.456;11.064;2023-01-15T13:55:55;28.90;;;21.00;;
68744;SDS011;66104;45.456;11.064;2023-01-15T13:58:39;26.70;;;19.80;;
68744;SDS011;66104;45.456;11.064;2023-01-15T14:01:34;28.20;;;19.70;;
68744;SDS011;66104;45.456;11.064;2023-01-15T14:04:15;28.00;;;20.30;;
68744;SDS011;66104;45.456;11.064;2023-01-15T14:07:15;29.20;;;19.60;;
68744;SDS011;66104;45.456;11.064;2023-01-15T14:09:54;32.30;;;22.80;;
68744;SDS011;66104;45.456;11.064;2023-01-15T14:12:50;33.80;;;22.70;;
68744;SDS011;66104;45.456;11.064;2023-01-15T14:15:47;29.40;;;21.10;;
68744;SDS011;66104;45.456;11.064;2023-01-15T14:18:42;31.30;;;22.70;;
68744;SDS011;66104;45.456;11.064;2023-01-15T14:21:50;27.30;;;19.40;;
68744;SDS011;66104;45.456;11.064;2023-01-15T14:28:08;28.10;;;20.30;;
68744;SDS011;66104;45.456;11.064;2023-01-15T14:31:15;36.20;;;24.50;;
68744;SDS011;66104;45.456;11.064;2023-01-15T14:34:17;32.10;;;23.50;;
68744;SDS011;66104;45.456;11.064;2023-01-15T14:37:01;30.60;;;22.20;;
68744;SDS011;66104;45.456;11.064;2023-01-15T14:39:52;28.90;;;21.00;;
68744;SDS011;66104;45.456;11.064;2023-01-15T14:42:32;30.50;;;22.00;;
68744;SDS011;66104;45.456;11.064;2023-01-15T14:45:30;32.00;;;21.20;;
68744;SDS011;66104;45.456;11.064;2023-01-15T14:48:19;32.80;;;23.40;;
68744;SDS011;66104;45.456;11.064;2023-01-15T14:51:13;36.10;;;24.10;;
68744;SDS011;66104;45.456;11.064;2023-01-15T14:54:12;35.30;;;21.70;;
68744;SDS011;66104;45.456;11.064;2023-01-15T14:56:54;30.90;;;21.70;;
68744;SDS011;66104;45.456;11.064;2023-01-15T14:59:43;30.20;;;22.70;;
68744;SDS011;66104;45.456;11.064;2023-01-15T15:02:27;30.40;;;20.50;;
68744;SDS011;66104;45.456;11.064;2023-01-15T15:05:14;37.60;;;25.20;;
68744;SDS011;66104;45.456;11.064;2023-01-15T15:07:54;38.30;;;25.20;;
68744;SDS011;66104;45.456;11.064;2023-01-15T15:10:38;38.40;;;25.60;;
68744;SDS011;66104;45.456;11.064;2023-01-15T15:13:26;36.20;;;25.20;;
68744;SDS011;66104;45.456;11.064;2023-01-15T15:16:10;33.90;;;24.40;;
68744;SDS011;66104;45.456;11.064;2023-01-15T15:18:56;39.70;;;28.30;;
68744;SDS011;66104;45.456;11.064;2023-01-15T15:21:40;33.00;;;22.70;;
68744;SDS011;66104;45.456;11.064;2023-01-15T15:24:25;32.00;;;22.30;;
68744;SDS011;66104;45.456;11.064;2023-01-15T15:27:15;38.70;;;26.50;;
68744;SDS011;66104;45.456;11.064;2023-01-15T15:30:04;34.50;;;24.60;;
68744;SDS011;66104;45.456;11.064;2023-01-15T15:32:46;36.30;;;24.60;;
68744;SDS011;66104;45.456;11.064;2023-01-15T15:35:27;34.90;;;24.00;;
68744;SDS011;66104;45.456;11.064;2023-01-15T15:38:13;25.70;;;17.80;;
68744;SDS011;66104;45.456;11.064;2023-01-15T15:40:53;34.10;;;23.50;;
68744;SDS011;66104;45.456;11.064;2023-01-15T15:43:40;38.50;;;26.30;;
68744;SDS011;66104;45.456;11.064;2023-01-15T15:46:46;42.70;;;28.10;;
68744;SDS011;66104;45.456;11.064;2023-01-15T15:49:42;43.30;;;28.00;;
68744;SDS011;66104;45.456;11.064;2023-01-15T15:52:21;36.70;;;25.90;;
68744;SDS011;66104;45.456;11.064;2023-01-15T15:55:03;38.50;;;26.10;;
68744;SDS011;66104;45.456;11.064;2023-01-15T15:57:51;41.40;;;27.60;;
68744;SDS011;66104;45.456;11.064;2023-01-15T16:00:34;42.80;;;27.80;;
68744;SDS011;66104;45.456;11.064;2023-01-15T16:03:20;39.30;;;27.10;;